Archival Weather

NSFA McMurdo Sound

NSFA McMurdo Sound, Antarctica (NZCM)

Report from: Friday, September 23, 2022 8:18 AM UTC
Current time: Sunday, December 4, 2022 12:23 PM UTC

Current weather
Weather history
Weather forecast

Present weatherHaze
Temperature-20.6°C (-5.1°F)
Wind chill-32.2°C (-25.9°F)
Dew point-24.6°C (-12.3°F)
Winds 13 kts (6.7 m/s, 15 mph) East-Southeast (110°)
Wind gusts 29 kts (14.9 m/s, 33.4 mph)
Peak wind 29 kts (14.9 m/s, 33.4 mph) East-Southeast (120°) at 03:11
Visibility1.1 mi. (1.8 km)
Clouds Ceiling: Overcast 1,400 ft. (427 m)
Altimeter28.67 in.Hg (971 mB)
Precip. events Snow ended 8:18 AM
Relative humidity70 %
Density altitude-3,049 ft. (-929 m)
Sea-level pressure107.1 kPa (1071 mB, 31.64 in.Hg)
Remarks Fully automated report
System requires maintenance
Special weather observation
Automated weather observing station with precipitation discriminator
Flight conditions Instrument Meteorological Conditions
Raw dataSPECI NZCM 230818Z AUTO 11013G29KT 1800 HZ OVC014 M21/M25 A2867 RMK AO2 PK WND 12029/0811 SNE0818 SLP714 T12061246 $
An error has occurred. This application may no longer respond until reloaded. Reload 🗙